createdAt,value
2022-12-08T00:01:24.783Z,144.73
2022-12-08T00:03:52.078Z,132.88
2022-12-08T00:06:42.765Z,149.40
2022-12-08T00:09:24.341Z,140.75
2022-12-08T00:11:55.944Z,136.98
2022-12-08T00:14:24.289Z,135.93
2022-12-08T00:16:51.063Z,137.48
2022-12-08T00:19:18.065Z,133.70
2022-12-08T00:21:44.992Z,124.32
2022-12-08T00:24:11.766Z,142.75
2022-12-08T00:26:38.602Z,139.45
2022-12-08T00:29:05.566Z,140.43
2022-12-08T00:31:32.832Z,133.10
2022-12-08T00:34:00.164Z,134.07
2022-12-08T00:36:27.358Z,133.25
2022-12-08T00:38:54.085Z,131.27
2022-12-08T00:41:40.912Z,138.43
2022-12-08T00:44:08.383Z,127.65
2022-12-08T00:46:35.419Z,126.03
2022-12-08T00:49:03.396Z,142.70
2022-12-08T00:51:30.381Z,133.15
2022-12-08T00:53:57.282Z,150.13
2022-12-08T00:56:24.156Z,141.82
2022-12-08T00:58:51.060Z,140.35
2022-12-08T01:01:19.260Z,275.83
2022-12-08T01:03:46.075Z,147.65
2022-12-08T01:06:12.920Z,147.00
2022-12-08T01:08:40.163Z,143.07
2022-12-08T01:11:08.228Z,146.43
2022-12-08T01:13:35.630Z,146.38
2022-12-08T01:16:02.555Z,142.45
2022-12-08T01:18:29.353Z,141.48
2022-12-08T01:20:56.089Z,137.63
2022-12-08T01:23:22.861Z,145.50
2022-12-08T01:25:49.502Z,145.85
2022-12-08T01:28:16.208Z,150.30
2022-12-08T01:30:43.530Z,152.60
2022-12-08T01:33:10.362Z,146.20
2022-12-08T01:35:37.178Z,142.13
2022-12-08T01:38:03.813Z,144.27
2022-12-08T01:40:30.546Z,151.00
2022-12-08T01:42:57.285Z,133.40
2022-12-08T01:45:31.297Z,144.50
2022-12-08T01:50:25.618Z,127.70
2022-12-08T01:52:54.985Z,115.00
2022-12-08T01:55:28.895Z,110.68
2022-12-08T02:00:22.848Z,102.07
2022-12-08T02:02:52.631Z,111.30
2022-12-08T02:05:20.708Z,108.10
2022-12-08T02:07:48.458Z,102.00
2022-12-08T02:10:17.109Z,100.60
2022-12-08T02:12:43.987Z,98.65
2022-12-08T02:15:11.090Z,104.75
2022-12-08T02:17:49.580Z,107.18
2022-12-08T02:20:35.147Z,94.60
2022-12-08T02:23:10.872Z,96.75
2022-12-08T02:25:42.351Z,92.57
2022-12-08T02:28:17.980Z,100.68
2022-12-08T02:30:58.477Z,94.13
2022-12-08T02:33:49.033Z,96.60
2022-12-08T02:36:35.971Z,88.32
2022-12-08T02:39:08.942Z,90.28
2022-12-08T02:41:46.557Z,92.65
2022-12-08T02:44:13.206Z,91.03
2022-12-08T02:46:42.499Z,95.47
2022-12-08T02:49:09.756Z,85.07
2022-12-08T02:51:36.433Z,92.05
2022-12-08T02:54:03.658Z,94.32
2022-12-08T02:56:49.211Z,97.93
2022-12-08T02:59:18.882Z,100.78
2022-12-08T03:02:04.563Z,99.68
2022-12-08T03:04:31.416Z,105.22
2022-12-08T03:07:06.712Z,104.22
2022-12-08T03:09:33.356Z,112.30
2022-12-08T03:12:05.805Z,107.93
2022-12-08T03:14:33.840Z,110.00
2022-12-08T03:17:00.721Z,112.60
2022-12-08T03:19:34.784Z,106.78
2022-12-08T03:22:03.587Z,101.55
2022-12-08T03:24:32.704Z,112.53
2022-12-08T03:27:01.889Z,104.50
2022-12-08T03:29:29.467Z,109.63
2022-12-08T03:31:58.262Z,105.32
2022-12-08T03:34:27.155Z,103.82
2022-12-08T03:36:54.331Z,102.88
2022-12-08T03:39:21.365Z,104.85
2022-12-08T03:41:48.053Z,105.00
2022-12-08T03:44:14.841Z,109.40
2022-12-08T03:46:41.494Z,108.32
2022-12-08T03:49:08.149Z,110.18
2022-12-08T03:51:34.893Z,114.10
2022-12-08T03:54:01.649Z,106.70
2022-12-08T03:56:32.805Z,109.22
2022-12-08T03:58:59.634Z,108.07
2022-12-08T04:01:26.357Z,104.70
2022-12-08T04:03:53.437Z,103.93
2022-12-08T04:06:20.322Z,105.93
2022-12-08T04:08:47.135Z,105.30
2022-12-08T04:11:14.017Z,98.10
2022-12-08T04:13:43.104Z,93.38
2022-12-08T04:16:14.783Z,96.47
2022-12-08T04:18:42.042Z,100.05
2022-12-08T04:21:09.054Z,94.82
2022-12-08T04:23:35.882Z,105.45
2022-12-08T04:26:02.917Z,99.80
2022-12-08T04:28:29.721Z,97.13
2022-12-08T04:30:56.661Z,100.50
2022-12-08T04:33:23.637Z,108.03
2022-12-08T04:35:50.430Z,104.68
2022-12-08T04:38:17.293Z,110.93
2022-12-08T04:40:44.115Z,94.78
2022-12-08T04:43:10.950Z,109.43
2022-12-08T04:45:41.016Z,100.40
2022-12-08T04:48:08.108Z,101.78
2022-12-08T04:50:35.050Z,105.38
2022-12-08T04:53:01.858Z,102.40
2022-12-08T04:55:28.551Z,105.50
2022-12-08T04:57:55.272Z,105.00
2022-12-08T05:00:22.074Z,107.88
2022-12-08T05:02:48.832Z,104.80
2022-12-08T05:05:15.639Z,108.55
2022-12-08T05:07:42.365Z,101.47
2022-12-08T05:10:09.408Z,104.25
2022-12-08T05:12:36.382Z,105.72
2022-12-08T05:15:04.058Z,110.50
2022-12-08T05:17:31.001Z,103.45
2022-12-08T05:19:58.833Z,110.55
2022-12-08T05:22:25.856Z,117.05
2022-12-08T05:24:52.616Z,111.60
2022-12-08T05:27:19.420Z,109.15
2022-12-08T05:29:48.083Z,110.53
2022-12-08T05:32:14.968Z,114.07
2022-12-08T05:34:43.783Z,112.45
2022-12-08T05:37:10.512Z,107.10
2022-12-08T05:39:37.302Z,103.88
2022-12-08T05:42:04.146Z,108.65
2022-12-08T05:44:31.232Z,106.45
2022-12-08T05:46:58.272Z,110.47
2022-12-08T05:49:25.672Z,107.82
2022-12-08T05:51:52.637Z,107.40
2022-12-08T05:54:20.579Z,106.53
2022-12-08T05:56:47.329Z,103.63
2022-12-08T05:59:14.267Z,102.53
2022-12-08T06:01:42.570Z,110.88
2022-12-08T06:04:09.485Z,101.10
2022-12-08T06:06:36.228Z,107.82
2022-12-08T06:09:03.808Z,109.70
2022-12-08T06:11:31.416Z,110.78
2022-12-08T06:13:58.413Z,103.85
2022-12-08T06:16:26.348Z,106.57
2022-12-08T06:18:53.538Z,106.15
2022-12-08T06:21:20.275Z,100.22
2022-12-08T06:23:51.232Z,96.30
2022-12-08T06:26:18.599Z,104.43
2022-12-08T06:28:45.536Z,98.32
2022-12-08T06:31:23.003Z,98.43
2022-12-08T06:33:49.851Z,101.93
2022-12-08T06:36:17.330Z,102.80
2022-12-08T06:38:44.280Z,98.97
2022-12-08T06:41:11.849Z,106.82
2022-12-08T06:43:39.627Z,104.00
2022-12-08T06:46:08.392Z,103.80
2022-12-08T06:48:36.490Z,103.05
2022-12-08T06:51:10.852Z,105.15
2022-12-08T06:53:38.125Z,105.60
2022-12-08T06:56:05.825Z,101.65
2022-12-08T06:58:32.841Z,108.55
2022-12-08T07:01:19.938Z,113.03
2022-12-08T07:03:47.801Z,121.35
2022-12-08T07:06:15.988Z,114.15
2022-12-08T07:08:42.749Z,112.57
2022-12-08T07:11:10.468Z,113.70
2022-12-08T07:13:37.372Z,104.85
2022-12-08T07:16:08.174Z,107.85
2022-12-08T07:18:35.736Z,118.65
2022-12-08T07:21:06.260Z,117.85
2022-12-08T07:23:33.132Z,115.22
2022-12-08T07:26:00.554Z,109.88
2022-12-08T07:28:27.249Z,97.28
2022-12-08T07:30:54.167Z,116.18
2022-12-08T07:33:20.890Z,110.38
2022-12-08T07:35:53.980Z,119.10
2022-12-08T07:38:21.321Z,112.45
2022-12-08T07:40:48.462Z,114.88
2022-12-08T07:43:15.583Z,117.57
2022-12-08T07:45:42.729Z,107.10
2022-12-08T07:48:10.249Z,108.82
2022-12-08T07:50:37.432Z,108.70
2022-12-08T07:53:04.112Z,97.40
2022-12-08T07:55:30.798Z,111.10
2022-12-08T07:57:57.504Z,111.85
2022-12-08T08:00:24.297Z,105.63
2022-12-08T08:02:51.041Z,99.25
2022-12-08T08:05:17.831Z,99.28
2022-12-08T08:07:46.675Z,101.18
2022-12-08T08:10:13.628Z,101.53
2022-12-08T08:12:40.486Z,150.48
2022-12-08T08:15:08.392Z,104.35
2022-12-08T08:17:36.599Z,107.57
2022-12-08T08:20:07.177Z,102.90
2022-12-08T08:22:34.557Z,105.07
2022-12-08T08:25:03.791Z,101.05
2022-12-08T08:27:31.848Z,102.25
2022-12-08T08:30:00.730Z,113.45
2022-12-08T08:32:30.229Z,99.90
2022-12-08T08:35:01.081Z,103.68
2022-12-08T08:37:28.035Z,91.13
2022-12-08T08:40:00.679Z,99.32
2022-12-08T08:42:30.589Z,97.40
2022-12-08T08:45:02.080Z,106.00
2022-12-08T08:47:30.440Z,102.55
2022-12-08T08:50:02.589Z,110.60
2022-12-08T08:52:30.823Z,99.53
2022-12-08T08:55:01.564Z,104.22
2022-12-08T08:57:36.690Z,113.25
2022-12-08T09:00:10.687Z,97.15
2022-12-08T09:02:40.490Z,97.05
2022-12-08T09:05:10.168Z,101.25
2022-12-08T09:07:40.806Z,104.28
2022-12-08T09:10:08.935Z,111.32
2022-12-08T09:12:37.881Z,107.25
2022-12-08T09:15:04.791Z,103.18
2022-12-08T09:17:34.459Z,103.88
2022-12-08T09:20:08.343Z,107.68
2022-12-08T09:22:40.796Z,107.50
2022-12-08T09:25:09.595Z,99.90
2022-12-08T09:27:39.662Z,97.70
2022-12-08T09:30:14.615Z,92.45
2022-12-08T09:32:45.502Z,92.07
2022-12-08T09:35:13.566Z,95.78
2022-12-08T09:37:41.961Z,91.82
2022-12-08T09:40:10.999Z,103.72
2022-12-08T09:42:52.320Z,97.22
2022-12-08T09:45:24.849Z,94.97
2022-12-08T09:48:06.031Z,98.63
2022-12-08T09:50:37.786Z,105.80
2022-12-08T09:53:20.481Z,95.65
2022-12-08T09:55:58.077Z,91.68
2022-12-08T09:58:38.493Z,94.90
2022-12-08T10:01:08.888Z,93.32
2022-12-08T10:03:36.216Z,91.60
2022-12-08T10:06:03.011Z,89.00
2022-12-08T10:08:42.748Z,91.28
2022-12-08T10:11:19.452Z,85.72
2022-12-08T10:13:57.623Z,82.10
2022-12-08T10:16:36.557Z,89.18
2022-12-08T10:19:21.522Z,74.43
2022-12-08T10:21:57.275Z,78.82
2022-12-08T10:24:27.098Z,83.82
2022-12-08T10:27:09.448Z,75.57
2022-12-08T10:29:41.029Z,77.47
2022-12-08T10:32:19.736Z,83.63
2022-12-08T10:35:07.399Z,77.32
2022-12-08T10:37:34.659Z,81.75
2022-12-08T10:40:02.063Z,81.40
2022-12-08T10:42:39.675Z,81.00
2022-12-08T10:45:21.058Z,74.28
2022-12-08T10:48:04.670Z,81.15
2022-12-08T10:50:31.828Z,74.43
2022-12-08T10:53:01.466Z,83.45
2022-12-08T10:55:45.724Z,81.25
2022-12-08T10:58:27.580Z,80.18
2022-12-08T11:01:02.688Z,98.68
2022-12-08T11:03:30.919Z,84.40
2022-12-08T11:06:07.044Z,84.57
2022-12-08T11:08:48.546Z,80.97
2022-12-08T11:11:16.943Z,95.25
2022-12-08T11:13:46.543Z,85.75
2022-12-08T11:16:14.845Z,83.13
2022-12-08T11:18:50.976Z,83.63
2022-12-08T11:21:21.515Z,82.15
2022-12-08T11:23:49.856Z,83.70
2022-12-08T11:26:31.639Z,79.55
2022-12-08T11:29:03.895Z,78.53
2022-12-08T11:31:35.302Z,81.10
2022-12-08T11:34:06.598Z,80.57
2022-12-08T11:36:35.594Z,80.47
2022-12-08T11:39:06.425Z,73.85
2022-12-08T11:41:38.518Z,76.38
2022-12-08T11:44:22.499Z,79.78
2022-12-08T11:47:01.886Z,81.25
2022-12-08T11:49:37.421Z,82.82
2022-12-08T11:52:05.789Z,69.80
2022-12-08T11:54:35.517Z,70.95
2022-12-08T11:57:08.790Z,73.70
2022-12-08T11:59:41.823Z,73.57
2022-12-08T12:02:15.462Z,72.33
2022-12-08T12:04:46.293Z,64.40
2022-12-08T12:07:35.667Z,64.40
2022-12-08T12:10:31.774Z,64.32
2022-12-08T12:13:16.965Z,66.63
2022-12-08T12:15:43.672Z,62.75
2022-12-08T12:18:19.519Z,61.42
2022-12-08T12:20:55.406Z,62.80
2022-12-08T12:23:40.245Z,61.75
2022-12-08T12:26:08.958Z,62.83
2022-12-08T12:28:56.510Z,60.53
2022-12-08T12:31:26.381Z,68.78
2022-12-08T12:33:55.380Z,64.13
2022-12-08T12:36:23.033Z,60.20
2022-12-08T12:39:10.286Z,69.72
2022-12-08T12:41:43.685Z,70.55
2022-12-08T12:44:13.529Z,79.70
2022-12-08T12:46:46.465Z,59.67
2022-12-08T12:49:31.872Z,57.63
2022-12-08T12:51:58.651Z,58.85
2022-12-08T12:54:27.287Z,61.88
2022-12-08T12:56:56.224Z,59.90
2022-12-08T12:59:29.541Z,60.40
2022-12-08T13:01:57.265Z,65.78
2022-12-08T13:04:31.357Z,61.75
2022-12-08T13:06:58.439Z,63.55
2022-12-08T13:09:36.681Z,62.35
2022-12-08T13:12:11.062Z,67.15
2022-12-08T13:14:46.785Z,74.57
2022-12-08T13:17:16.658Z,71.20
2022-12-08T13:19:51.681Z,79.43
2022-12-08T13:22:39.022Z,79.10
2022-12-08T13:25:24.498Z,70.70
2022-12-08T13:27:54.730Z,62.25
2022-12-08T13:30:41.433Z,61.33
2022-12-08T13:33:19.571Z,59.45
2022-12-08T13:35:49.243Z,63.17
2022-12-08T13:38:18.073Z,70.68
2022-12-08T13:40:46.377Z,64.88
2022-12-08T13:43:16.207Z,61.92
2022-12-08T13:46:57.519Z,60.75
2022-12-08T13:57:28.867Z,65.07
2022-12-08T14:00:00.074Z,65.68
2022-12-08T14:02:29.600Z,66.32
2022-12-08T14:07:44.463Z,68.57
2022-12-08T14:10:16.829Z,74.28
2022-12-08T14:12:46.423Z,70.22
2022-12-08T14:15:15.293Z,78.15
2022-12-08T14:17:54.192Z,69.63
2022-12-08T14:20:26.769Z,69.60
2022-12-08T14:22:53.899Z,74.03
2022-12-08T14:25:21.667Z,79.50
2022-12-08T14:27:49.058Z,69.10
2022-12-08T14:30:19.313Z,71.90
2022-12-08T14:32:50.728Z,70.47
2022-12-08T14:35:23.725Z,65.65
2022-12-08T14:37:52.901Z,79.47
2022-12-08T14:40:23.522Z,76.45
2022-12-08T14:42:52.906Z,71.70
2022-12-08T14:45:20.467Z,69.95
2022-12-08T14:47:48.716Z,68.57
2022-12-08T14:50:34.071Z,78.63
2022-12-08T14:53:00.913Z,81.13
2022-12-08T14:55:28.777Z,90.38
2022-12-08T14:57:55.671Z,76.28
2022-12-08T15:00:22.762Z,93.50
2022-12-08T15:02:49.604Z,80.75
2022-12-08T15:05:18.745Z,77.03
2022-12-08T15:07:46.604Z,75.47
2022-12-08T15:10:16.707Z,74.18
2022-12-08T15:13:00.168Z,73.70
2022-12-08T15:15:27.577Z,66.90
2022-12-08T15:18:16.609Z,72.25
2022-12-08T15:20:48.540Z,72.93
2022-12-08T15:23:27.150Z,73.15
2022-12-08T15:25:54.619Z,76.00
2022-12-08T15:28:26.652Z,68.07
2022-12-08T15:30:56.989Z,65.65
2022-12-08T15:33:23.805Z,65.95
2022-12-08T15:35:51.203Z,68.53
2022-12-08T15:38:23.488Z,70.03
2022-12-08T15:40:50.762Z,67.35
2022-12-08T15:43:17.917Z,61.17
2022-12-08T15:45:57.776Z,63.78
2022-12-08T15:48:30.920Z,60.80
2022-12-08T15:50:57.737Z,66.78
2022-12-08T15:53:24.469Z,66.68
2022-12-08T15:56:25.753Z,65.60
2022-12-08T15:58:57.885Z,62.20
2022-12-08T16:01:25.835Z,62.92
2022-12-08T16:04:27.928Z,64.05
2022-12-08T16:09:30.993Z,65.03
2022-12-08T16:12:17.408Z,67.07
2022-12-08T16:15:47.076Z,71.55
2022-12-08T16:17:32.144Z,75.95
2022-12-08T16:20:00.067Z,81.25
2022-12-08T16:25:20.557Z,78.25
2022-12-08T16:28:36.897Z,72.65
2022-12-08T16:30:38.916Z,73.10
2022-12-08T16:33:05.592Z,74.38
2022-12-08T16:35:32.276Z,78.05
2022-12-08T16:37:59.008Z,70.20
2022-12-08T16:40:26.715Z,65.72
2022-12-08T16:42:53.551Z,73.22
2022-12-08T16:45:24.644Z,67.93
2022-12-08T16:47:53.428Z,85.40
2022-12-08T16:50:23.182Z,71.50
2022-12-08T16:52:50.721Z,81.13
2022-12-08T16:55:18.343Z,68.78
2022-12-08T16:57:46.124Z,68.65
2022-12-08T17:00:15.295Z,72.07
2022-12-08T17:02:42.225Z,77.75
2022-12-08T17:05:10.996Z,81.53
2022-12-08T17:07:37.765Z,85.72
2022-12-08T17:10:08.170Z,80.75
2022-12-08T17:12:38.142Z,78.97
2022-12-08T17:15:05.812Z,82.07
2022-12-08T17:17:35.350Z,86.38
2022-12-08T17:20:05.123Z,89.18
2022-12-08T17:22:32.983Z,75.03
2022-12-08T17:25:00.218Z,79.00
2022-12-08T17:27:27.315Z,61.38
2022-12-08T17:29:54.038Z,73.75
2022-12-08T17:32:20.920Z,88.15
2022-12-08T17:34:48.353Z,73.05
2022-12-08T17:37:16.723Z,93.57
2022-12-08T17:39:43.461Z,72.97
2022-12-08T17:42:10.352Z,76.80
2022-12-08T17:44:37.088Z,74.22
2022-12-08T17:47:04.189Z,73.25
2022-12-08T17:49:31.335Z,76.82
2022-12-08T17:51:59.276Z,68.97
2022-12-08T17:54:26.429Z,74.78
2022-12-08T17:56:53.280Z,72.90
2022-12-08T17:59:20.036Z,69.72
2022-12-08T18:01:46.873Z,78.28
2022-12-08T18:04:13.733Z,68.85
2022-12-08T18:06:40.539Z,86.13
2022-12-08T18:09:07.882Z,70.88
2022-12-08T18:11:35.037Z,71.82
2022-12-08T18:14:09.352Z,69.65
2022-12-08T18:16:37.122Z,68.82
2022-12-08T18:19:04.464Z,69.78
2022-12-08T18:21:31.363Z,71.65
2022-12-08T18:23:58.220Z,70.70
2022-12-08T18:26:25.266Z,74.50
2022-12-08T18:28:51.910Z,73.32
2022-12-08T18:31:20.305Z,91.40
2022-12-08T18:33:47.571Z,74.88
2022-12-08T18:36:15.575Z,79.20
2022-12-08T18:38:42.703Z,75.88
2022-12-08T18:41:13.690Z,77.07
2022-12-08T18:43:40.702Z,70.30
2022-12-08T18:46:09.739Z,83.57
2022-12-08T18:48:38.406Z,90.97
2022-12-08T18:51:10.202Z,78.32
2022-12-08T18:53:37.008Z,92.55
2022-12-08T18:56:04.068Z,88.63
2022-12-08T18:58:30.924Z,78.72
2022-12-08T19:00:58.911Z,82.55
2022-12-08T19:03:26.173Z,87.40
2022-12-08T19:06:03.290Z,78.63
2022-12-08T19:08:31.708Z,97.93
2022-12-08T19:10:59.171Z,94.65
2022-12-08T19:13:27.246Z,84.55
2022-12-08T19:15:54.198Z,97.53
2022-12-08T19:18:20.924Z,77.97
2022-12-08T19:20:48.561Z,79.40
2022-12-08T19:23:15.516Z,78.72
2022-12-08T19:25:42.237Z,78.55
2022-12-08T19:28:08.857Z,67.63
2022-12-08T19:30:35.585Z,72.25
2022-12-08T19:33:02.464Z,69.85
2022-12-08T19:35:29.206Z,76.50
2022-12-08T19:37:55.871Z,71.85
2022-12-08T19:40:43.913Z,74.03
2022-12-08T19:43:32.352Z,75.95
2022-12-08T19:45:59.747Z,89.95
2022-12-08T19:48:27.372Z,80.20
2022-12-08T19:50:54.030Z,82.00
2022-12-08T19:53:21.041Z,80.20
2022-12-08T19:55:47.730Z,85.82
2022-12-08T19:58:14.792Z,84.05
2022-12-08T20:00:42.093Z,74.25
2022-12-08T20:03:08.840Z,75.43
2022-12-08T20:05:36.294Z,80.80
2022-12-08T20:08:03.357Z,72.57
2022-12-08T20:10:33.658Z,80.13
2022-12-08T20:13:39.350Z,79.15
2022-12-08T20:16:06.526Z,78.05
2022-12-08T20:18:39.875Z,72.90
2022-12-08T20:21:07.460Z,79.63
2022-12-08T20:23:34.677Z,76.57
2022-12-08T20:26:04.087Z,71.65
2022-12-08T20:28:30.821Z,73.15
2022-12-08T20:30:57.576Z,73.13
2022-12-08T20:33:24.287Z,69.88
2022-12-08T20:36:01.035Z,76.68
2022-12-08T20:38:28.906Z,82.90
2022-12-08T20:40:56.494Z,73.13
2022-12-08T20:43:23.413Z,68.97
2022-12-08T20:45:50.680Z,65.68
2022-12-08T20:48:18.027Z,67.10
2022-12-08T20:50:44.813Z,57.67
2022-12-08T20:53:11.590Z,63.58
2022-12-08T20:55:40.601Z,70.80
2022-12-08T20:58:07.658Z,66.75
2022-12-08T21:00:34.480Z,78.38
2022-12-08T21:03:01.597Z,111.07
2022-12-08T21:05:28.599Z,87.22
2022-12-08T21:07:55.487Z,69.95
2022-12-08T21:10:22.259Z,64.53
2022-12-08T21:12:49.097Z,66.45
2022-12-08T21:15:15.940Z,73.78
2022-12-08T21:17:43.102Z,73.82
2022-12-08T21:20:11.213Z,68.85
2022-12-08T21:22:40.319Z,72.63
2022-12-08T21:25:07.671Z,63.13
2022-12-08T21:27:34.392Z,68.32
2022-12-08T21:30:01.136Z,66.75
2022-12-08T21:32:30.599Z,74.03
2022-12-08T21:34:57.938Z,71.10
2022-12-08T21:37:24.667Z,71.43
2022-12-08T21:39:51.529Z,70.97
2022-12-08T21:42:37.108Z,72.50
2022-12-08T21:45:04.258Z,72.22
2022-12-08T21:47:31.210Z,77.40
2022-12-08T21:49:58.115Z,79.47
2022-12-08T21:52:24.835Z,76.07
2022-12-08T21:54:51.764Z,72.63
2022-12-08T21:57:18.681Z,74.38
2022-12-08T21:59:45.334Z,84.55
2022-12-08T22:02:15.655Z,76.35
2022-12-08T22:04:48.495Z,80.70
2022-12-08T22:07:16.007Z,86.85
2022-12-08T22:09:42.794Z,80.78
2022-12-08T22:12:11.867Z,78.13
2022-12-08T22:14:39.932Z,84.07
2022-12-08T22:17:07.186Z,82.95
2022-12-08T22:19:34.128Z,89.13
2022-12-08T22:22:01.112Z,82.82
2022-12-08T22:24:29.854Z,86.10
2022-12-08T22:26:56.763Z,79.43
2022-12-08T22:29:23.742Z,91.40
2022-12-08T22:31:50.443Z,96.03
2022-12-08T22:34:17.153Z,90.05
2022-12-08T22:36:44.475Z,96.10
2022-12-08T22:39:12.221Z,94.28
2022-12-08T22:41:38.922Z,90.07
2022-12-08T22:44:06.199Z,84.63
2022-12-08T22:46:32.995Z,88.30
2022-12-08T22:48:59.868Z,85.13
2022-12-08T22:51:26.734Z,87.05
2022-12-08T22:54:01.658Z,88.93
2022-12-08T22:56:28.516Z,90.18
2022-12-08T22:58:55.196Z,93.35
2022-12-08T23:01:22.138Z,91.18
2022-12-08T23:03:49.278Z,86.13
2022-12-08T23:06:16.410Z,94.32
2022-12-08T23:08:43.944Z,87.20
2022-12-08T23:11:11.129Z,88.55
2022-12-08T23:13:39.521Z,86.72
2022-12-08T23:16:09.903Z,84.35
2022-12-08T23:18:37.088Z,80.25
2022-12-08T23:21:08.334Z,84.55
2022-12-08T23:23:35.463Z,85.13
2022-12-08T23:26:02.248Z,88.78
2022-12-08T23:28:28.950Z,85.95
2022-12-08T23:30:55.714Z,96.13
2022-12-08T23:33:22.607Z,90.22
2022-12-08T23:35:58.637Z,105.13
2022-12-08T23:38:25.593Z,143.88
2022-12-08T23:40:52.821Z,98.78
2022-12-08T23:43:20.104Z,101.32
2022-12-08T23:45:47.616Z,94.07
2022-12-08T23:48:15.039Z,94.25
2022-12-08T23:50:42.342Z,93.82
2022-12-08T23:53:09.169Z,95.43
2022-12-08T23:55:35.936Z,96.55
2022-12-08T23:58:02.717Z,86.38
